sensor_id;sensor_type;location;lat;lon;timestamp;P1;durP1;ratioP1;P2;durP2;ratioP2
18102;SDS011;9178;51.120;6.192;2022-07-09T00:01:21;4.67;;;2.73;;
18102;SDS011;9178;51.120;6.192;2022-07-09T00:03:49;3.57;;;2.47;;
18102;SDS011;9178;51.120;6.192;2022-07-09T00:06:17;3.37;;;2.70;;
18102;SDS011;9178;51.120;6.192;2022-07-09T00:08:43;6.13;;;2.90;;
18102;SDS011;9178;51.120;6.192;2022-07-09T00:11:10;3.00;;;2.43;;
18102;SDS011;9178;51.120;6.192;2022-07-09T00:13:38;4.03;;;2.70;;
18102;SDS011;9178;51.120;6.192;2022-07-09T00:16:05;4.03;;;2.63;;
18102;SDS011;9178;51.120;6.192;2022-07-09T00:18:32;3.53;;;2.80;;
18102;SDS011;9178;51.120;6.192;2022-07-09T00:20:59;4.23;;;2.70;;
18102;SDS011;9178;51.120;6.192;2022-07-09T00:23:26;3.80;;;2.47;;
18102;SDS011;9178;51.120;6.192;2022-07-09T00:25:53;2.70;;;2.50;;
18102;SDS011;9178;51.120;6.192;2022-07-09T00:28:19;2.60;;;2.20;;
18102;SDS011;9178;51.120;6.192;2022-07-09T00:30:48;3.93;;;2.57;;
18102;SDS011;9178;51.120;6.192;2022-07-09T00:33:14;2.73;;;2.50;;
18102;SDS011;9178;51.120;6.192;2022-07-09T00:35:41;3.80;;;2.90;;
18102;SDS011;9178;51.120;6.192;2022-07-09T00:38:08;2.57;;;2.37;;
18102;SDS011;9178;51.120;6.192;2022-07-09T00:40:35;3.73;;;2.30;;
18102;SDS011;9178;51.120;6.192;2022-07-09T00:43:01;4.50;;;2.73;;
18102;SDS011;9178;51.120;6.192;2022-07-09T00:45:28;3.67;;;1.83;;
18102;SDS011;9178;51.120;6.192;2022-07-09T00:47:56;3.50;;;2.60;;
18102;SDS011;9178;51.120;6.192;2022-07-09T00:50:24;3.97;;;2.53;;
18102;SDS011;9178;51.120;6.192;2022-07-09T00:52:51;3.07;;;2.50;;
18102;SDS011;9178;51.120;6.192;2022-07-09T00:55:18;3.20;;;2.53;;
18102;SDS011;9178;51.120;6.192;2022-07-09T00:57:45;4.17;;;2.70;;
18102;SDS011;9178;51.120;6.192;2022-07-09T01:00:12;3.87;;;3.00;;
18102;SDS011;9178;51.120;6.192;2022-07-09T01:02:40;3.13;;;2.70;;
18102;SDS011;9178;51.120;6.192;2022-07-09T01:05:08;2.63;;;2.43;;
18102;SDS011;9178;51.120;6.192;2022-07-09T01:07:35;3.30;;;2.63;;
18102;SDS011;9178;51.120;6.192;2022-07-09T01:10:02;5.13;;;3.00;;
18102;SDS011;9178;51.120;6.192;2022-07-09T01:12:30;5.77;;;2.90;;
18102;SDS011;9178;51.120;6.192;2022-07-09T01:14:58;3.33;;;2.50;;
18102;SDS011;9178;51.120;6.192;2022-07-09T01:17:24;4.20;;;2.70;;
18102;SDS011;9178;51.120;6.192;2022-07-09T01:19:51;3.10;;;2.77;;
18102;SDS011;9178;51.120;6.192;2022-07-09T01:22:20;3.17;;;2.90;;
18102;SDS011;9178;51.120;6.192;2022-07-09T01:24:47;4.83;;;2.80;;
18102;SDS011;9178;51.120;6.192;2022-07-09T01:27:16;3.27;;;2.83;;
18102;SDS011;9178;51.120;6.192;2022-07-09T01:29:42;4.80;;;2.73;;
18102;SDS011;9178;51.120;6.192;2022-07-09T01:32:14;3.90;;;2.90;;
18102;SDS011;9178;51.120;6.192;2022-07-09T01:34:41;4.77;;;2.77;;
18102;SDS011;9178;51.120;6.192;2022-07-09T01:37:08;2.93;;;2.50;;
18102;SDS011;9178;51.120;6.192;2022-07-09T01:39:36;5.67;;;3.03;;
18102;SDS011;9178;51.120;6.192;2022-07-09T01:42:14;3.60;;;3.27;;
18102;SDS011;9178;51.120;6.192;2022-07-09T01:44:42;2.90;;;2.70;;
18102;SDS011;9178;51.120;6.192;2022-07-09T01:47:08;3.20;;;2.90;;
18102;SDS011;9178;51.120;6.192;2022-07-09T01:49:35;3.43;;;2.80;;
18102;SDS011;9178;51.120;6.192;2022-07-09T01:52:03;2.80;;;2.50;;
18102;SDS011;9178;51.120;6.192;2022-07-09T01:54:30;2.80;;;2.60;;
18102;SDS011;9178;51.120;6.192;2022-07-09T01:56:59;3.73;;;3.00;;
18102;SDS011;9178;51.120;6.192;2022-07-09T01:59:25;4.10;;;2.70;;
18102;SDS011;9178;51.120;6.192;2022-07-09T02:01:52;2.90;;;2.70;;
18102;SDS011;9178;51.120;6.192;2022-07-09T02:04:19;4.57;;;2.70;;
18102;SDS011;9178;51.120;6.192;2022-07-09T02:06:46;4.63;;;2.93;;
18102;SDS011;9178;51.120;6.192;2022-07-09T02:09:13;4.93;;;3.27;;
18102;SDS011;9178;51.120;6.192;2022-07-09T02:11:40;6.43;;;2.97;;
18102;SDS011;9178;51.120;6.192;2022-07-09T02:14:08;3.40;;;3.10;;
18102;SDS011;9178;51.120;6.192;2022-07-09T02:16:35;2.80;;;2.57;;
18102;SDS011;9178;51.120;6.192;2022-07-09T02:19:02;3.07;;;2.80;;
18102;SDS011;9178;51.120;6.192;2022-07-09T02:21:29;5.43;;;3.60;;
18102;SDS011;9178;51.120;6.192;2022-07-09T02:23:56;4.47;;;3.00;;
18102;SDS011;9178;51.120;6.192;2022-07-09T02:26:23;3.47;;;3.17;;
18102;SDS011;9178;51.120;6.192;2022-07-09T02:28:51;4.13;;;3.57;;
18102;SDS011;9178;51.120;6.192;2022-07-09T02:31:19;3.77;;;3.30;;
18102;SDS011;9178;51.120;6.192;2022-07-09T02:33:46;3.63;;;3.33;;
18102;SDS011;9178;51.120;6.192;2022-07-09T02:36:12;4.00;;;3.30;;
18102;SDS011;9178;51.120;6.192;2022-07-09T02:38:40;4.83;;;3.47;;
18102;SDS011;9178;51.120;6.192;2022-07-09T02:41:06;3.63;;;3.33;;
18102;SDS011;9178;51.120;6.192;2022-07-09T02:43:33;4.30;;;3.43;;
18102;SDS011;9178;51.120;6.192;2022-07-09T02:46:00;4.63;;;3.90;;
18102;SDS011;9178;51.120;6.192;2022-07-09T02:48:30;4.67;;;4.27;;
18102;SDS011;9178;51.120;6.192;2022-07-09T02:50:57;4.53;;;3.80;;
18102;SDS011;9178;51.120;6.192;2022-07-09T02:53:25;5.23;;;3.87;;
18102;SDS011;9178;51.120;6.192;2022-07-09T02:55:52;4.60;;;4.20;;
18102;SDS011;9178;51.120;6.192;2022-07-09T02:58:19;5.30;;;4.27;;
18102;SDS011;9178;51.120;6.192;2022-07-09T03:00:46;5.27;;;4.40;;
18102;SDS011;9178;51.120;6.192;2022-07-09T03:03:13;5.87;;;4.63;;
18102;SDS011;9178;51.120;6.192;2022-07-09T03:05:41;5.50;;;4.63;;
18102;SDS011;9178;51.120;6.192;2022-07-09T03:08:08;6.27;;;4.47;;
18102;SDS011;9178;51.120;6.192;2022-07-09T03:10:35;5.07;;;4.57;;
18102;SDS011;9178;51.120;6.192;2022-07-09T03:13:02;8.03;;;4.33;;
18102;SDS011;9178;51.120;6.192;2022-07-09T03:15:29;5.37;;;4.27;;
18102;SDS011;9178;51.120;6.192;2022-07-09T03:17:56;6.13;;;5.07;;
18102;SDS011;9178;51.120;6.192;2022-07-09T03:20:23;5.60;;;5.00;;
18102;SDS011;9178;51.120;6.192;2022-07-09T03:22:51;8.37;;;4.90;;
18102;SDS011;9178;51.120;6.192;2022-07-09T03:25:17;6.27;;;4.63;;
18102;SDS011;9178;51.120;6.192;2022-07-09T03:27:44;5.37;;;4.47;;
18102;SDS011;9178;51.120;6.192;2022-07-09T03:30:11;7.03;;;5.00;;
18102;SDS011;9178;51.120;6.192;2022-07-09T03:32:38;5.43;;;4.93;;
18102;SDS011;9178;51.120;6.192;2022-07-09T03:35:05;5.27;;;4.37;;
18102;SDS011;9178;51.120;6.192;2022-07-09T03:37:33;5.37;;;4.87;;
18102;SDS011;9178;51.120;6.192;2022-07-09T03:40:01;5.10;;;4.70;;
18102;SDS011;9178;51.120;6.192;2022-07-09T03:42:28;6.37;;;4.80;;
18102;SDS011;9178;51.120;6.192;2022-07-09T03:44:55;6.97;;;4.97;;
18102;SDS011;9178;51.120;6.192;2022-07-09T03:47:22;6.83;;;5.00;;
18102;SDS011;9178;51.120;6.192;2022-07-09T03:49:49;6.43;;;4.90;;
18102;SDS011;9178;51.120;6.192;2022-07-09T03:52:16;6.60;;;5.47;;
18102;SDS011;9178;51.120;6.192;2022-07-09T03:54:42;5.93;;;5.43;;
18102;SDS011;9178;51.120;6.192;2022-07-09T03:57:11;5.97;;;5.30;;
18102;SDS011;9178;51.120;6.192;2022-07-09T03:59:37;7.23;;;5.53;;
18102;SDS011;9178;51.120;6.192;2022-07-09T04:02:04;6.70;;;5.00;;
18102;SDS011;9178;51.120;6.192;2022-07-09T04:04:31;8.50;;;5.50;;
18102;SDS011;9178;51.120;6.192;2022-07-09T04:06:58;5.80;;;5.27;;
18102;SDS011;9178;51.120;6.192;2022-07-09T04:09:24;9.33;;;5.43;;
18102;SDS011;9178;51.120;6.192;2022-07-09T04:11:52;7.73;;;5.97;;
18102;SDS011;9178;51.120;6.192;2022-07-09T04:14:20;6.87;;;5.60;;
18102;SDS011;9178;51.120;6.192;2022-07-09T04:16:47;7.10;;;4.90;;
18102;SDS011;9178;51.120;6.192;2022-07-09T04:19:14;5.30;;;4.80;;
18102;SDS011;9178;51.120;6.192;2022-07-09T04:21:40;4.80;;;4.33;;
18102;SDS011;9178;51.120;6.192;2022-07-09T04:24:07;9.53;;;5.03;;
18102;SDS011;9178;51.120;6.192;2022-07-09T04:26:34;6.33;;;4.50;;
18102;SDS011;9178;51.120;6.192;2022-07-09T04:29:01;5.53;;;5.03;;
18102;SDS011;9178;51.120;6.192;2022-07-09T04:31:29;6.90;;;4.77;;
18102;SDS011;9178;51.120;6.192;2022-07-09T04:33:56;6.37;;;4.50;;
18102;SDS011;9178;51.120;6.192;2022-07-09T04:36:23;5.40;;;4.33;;
18102;SDS011;9178;51.120;6.192;2022-07-09T04:38:49;7.37;;;4.30;;
18102;SDS011;9178;51.120;6.192;2022-07-09T04:41:16;5.13;;;4.20;;
18102;SDS011;9178;51.120;6.192;2022-07-09T04:43:43;6.83;;;4.93;;
18102;SDS011;9178;51.120;6.192;2022-07-09T04:46:10;5.83;;;4.67;;
18102;SDS011;9178;51.120;6.192;2022-07-09T04:48:38;5.53;;;4.67;;
18102;SDS011;9178;51.120;6.192;2022-07-09T04:51:05;5.07;;;4.47;;
18102;SDS011;9178;51.120;6.192;2022-07-09T04:53:32;4.43;;;4.00;;
18102;SDS011;9178;51.120;6.192;2022-07-09T04:55:59;8.07;;;5.00;;
18102;SDS011;9178;51.120;6.192;2022-07-09T04:58:26;5.83;;;4.83;;
18102;SDS011;9178;51.120;6.192;2022-07-09T05:00:54;6.63;;;4.57;;
18102;SDS011;9178;51.120;6.192;2022-07-09T05:03:21;9.03;;;5.00;;
18102;SDS011;9178;51.120;6.192;2022-07-09T05:05:49;5.43;;;4.47;;
18102;SDS011;9178;51.120;6.192;2022-07-09T05:08:16;7.13;;;5.13;;
18102;SDS011;9178;51.120;6.192;2022-07-09T05:10:43;8.80;;;5.43;;
18102;SDS011;9178;51.120;6.192;2022-07-09T05:13:10;7.57;;;4.60;;
18102;SDS011;9178;51.120;6.192;2022-07-09T05:15:37;5.40;;;4.87;;
18102;SDS011;9178;51.120;6.192;2022-07-09T05:18:03;7.90;;;5.63;;
18102;SDS011;9178;51.120;6.192;2022-07-09T05:20:30;8.40;;;5.80;;
18102;SDS011;9178;51.120;6.192;2022-07-09T05:22:58;11.20;;;8.30;;
18102;SDS011;9178;51.120;6.192;2022-07-09T05:25:25;10.50;;;7.50;;
18102;SDS011;9178;51.120;6.192;2022-07-09T05:27:52;7.53;;;6.53;;
18102;SDS011;9178;51.120;6.192;2022-07-09T05:30:19;11.50;;;8.67;;
18102;SDS011;9178;51.120;6.192;2022-07-09T05:32:46;12.67;;;7.70;;
18102;SDS011;9178;51.120;6.192;2022-07-09T05:35:12;9.70;;;8.70;;
18102;SDS011;9178;51.120;6.192;2022-07-09T05:37:40;11.37;;;9.37;;
18102;SDS011;9178;51.120;6.192;2022-07-09T05:40:09;14.57;;;10.53;;
18102;SDS011;9178;51.120;6.192;2022-07-09T05:42:37;15.57;;;11.13;;
18102;SDS011;9178;51.120;6.192;2022-07-09T05:45:05;15.43;;;12.60;;
18102;SDS011;9178;51.120;6.192;2022-07-09T05:47:33;12.93;;;11.33;;
18102;SDS011;9178;51.120;6.192;2022-07-09T05:50:00;14.87;;;11.57;;
18102;SDS011;9178;51.120;6.192;2022-07-09T05:52:27;16.43;;;12.33;;
18102;SDS011;9178;51.120;6.192;2022-07-09T05:54:54;16.03;;;13.60;;
18102;SDS011;9178;51.120;6.192;2022-07-09T05:57:22;14.67;;;11.67;;
18102;SDS011;9178;51.120;6.192;2022-07-09T05:59:49;13.03;;;11.03;;
18102;SDS011;9178;51.120;6.192;2022-07-09T06:02:16;14.97;;;10.43;;
18102;SDS011;9178;51.120;6.192;2022-07-09T06:04:43;15.30;;;11.90;;
18102;SDS011;9178;51.120;6.192;2022-07-09T06:07:10;13.00;;;10.27;;
18102;SDS011;9178;51.120;6.192;2022-07-09T06:09:37;13.43;;;11.57;;
18102;SDS011;9178;51.120;6.192;2022-07-09T06:12:04;12.43;;;10.80;;
18102;SDS011;9178;51.120;6.192;2022-07-09T06:14:33;14.07;;;11.37;;
18102;SDS011;9178;51.120;6.192;2022-07-09T06:16:59;12.77;;;11.40;;
18102;SDS011;9178;51.120;6.192;2022-07-09T06:19:31;14.80;;;11.17;;
18102;SDS011;9178;51.120;6.192;2022-07-09T06:21:58;11.43;;;9.67;;
18102;SDS011;9178;51.120;6.192;2022-07-09T06:24:25;10.93;;;9.83;;
18102;SDS011;9178;51.120;6.192;2022-07-09T06:26:51;11.40;;;10.20;;
18102;SDS011;9178;51.120;6.192;2022-07-09T06:29:18;13.33;;;11.07;;
18102;SDS011;9178;51.120;6.192;2022-07-09T06:31:47;16.20;;;10.73;;
18102;SDS011;9178;51.120;6.192;2022-07-09T06:34:14;16.00;;;10.90;;
18102;SDS011;9178;51.120;6.192;2022-07-09T06:36:41;10.50;;;9.40;;
18102;SDS011;9178;51.120;6.192;2022-07-09T06:39:09;12.63;;;9.97;;
18102;SDS011;9178;51.120;6.192;2022-07-09T06:41:54;7.80;;;7.00;;
18102;SDS011;9178;51.120;6.192;2022-07-09T06:44:20;8.77;;;6.27;;
18102;SDS011;9178;51.120;6.192;2022-07-09T06:46:49;10.50;;;6.63;;
18102;SDS011;9178;51.120;6.192;2022-07-09T06:49:15;8.00;;;6.73;;
18102;SDS011;9178;51.120;6.192;2022-07-09T06:51:42;6.40;;;5.70;;
18102;SDS011;9178;51.120;6.192;2022-07-09T06:54:09;7.57;;;5.80;;
18102;SDS011;9178;51.120;6.192;2022-07-09T06:56:36;6.78;;;5.68;;
18102;SDS011;9178;51.120;6.192;2022-07-09T06:59:03;7.60;;;5.75;;
18102;SDS011;9178;51.120;6.192;2022-07-09T07:01:30;7.15;;;5.20;;
18102;SDS011;9178;51.120;6.192;2022-07-09T07:03:58;5.65;;;4.35;;
18102;SDS011;9178;51.120;6.192;2022-07-09T07:06:25;10.13;;;6.82;;
18102;SDS011;9178;51.120;6.192;2022-07-09T07:08:52;9.18;;;6.53;;
18102;SDS011;9178;51.120;6.192;2022-07-09T07:11:19;7.40;;;6.60;;
18102;SDS011;9178;51.120;6.192;2022-07-09T07:13:46;7.47;;;6.38;;
18102;SDS011;9178;51.120;6.192;2022-07-09T07:16:12;10.07;;;6.53;;
18102;SDS011;9178;51.120;6.192;2022-07-09T07:18:39;8.68;;;6.60;;
18102;SDS011;9178;51.120;6.192;2022-07-09T07:21:07;7.93;;;6.32;;
18102;SDS011;9178;51.120;6.192;2022-07-09T07:23:34;6.32;;;5.10;;
18102;SDS011;9178;51.120;6.192;2022-07-09T07:26:01;8.38;;;5.88;;
18102;SDS011;9178;51.120;6.192;2022-07-09T07:28:28;6.50;;;5.40;;
18102;SDS011;9178;51.120;6.192;2022-07-09T07:30:55;6.07;;;5.45;;
18102;SDS011;9178;51.120;6.192;2022-07-09T07:33:22;7.07;;;5.07;;
18102;SDS011;9178;51.120;6.192;2022-07-09T07:35:49;5.13;;;4.68;;
18102;SDS011;9178;51.120;6.192;2022-07-09T07:38:17;7.05;;;5.15;;
18102;SDS011;9178;51.120;6.192;2022-07-09T07:40:44;4.70;;;3.67;;
18102;SDS011;9178;51.120;6.192;2022-07-09T07:43:11;5.82;;;3.63;;
18102;SDS011;9178;51.120;6.192;2022-07-09T07:45:38;5.65;;;3.70;;
18102;SDS011;9178;51.120;6.192;2022-07-09T07:48:05;3.83;;;3.47;;
18102;SDS011;9178;51.120;6.192;2022-07-09T07:50:32;4.40;;;3.40;;
18102;SDS011;9178;51.120;6.192;2022-07-09T07:53:03;3.22;;;2.90;;
18102;SDS011;9178;51.120;6.192;2022-07-09T07:55:31;5.28;;;2.88;;
18102;SDS011;9178;51.120;6.192;2022-07-09T07:57:59;7.60;;;2.55;;
18102;SDS011;9178;51.120;6.192;2022-07-09T08:00:26;2.78;;;2.25;;
18102;SDS011;9178;51.120;6.192;2022-07-09T08:02:53;4.93;;;3.13;;
18102;SDS011;9178;51.120;6.192;2022-07-09T08:05:19;3.55;;;2.30;;
18102;SDS011;9178;51.120;6.192;2022-07-09T08:07:46;2.88;;;2.30;;
18102;SDS011;9178;51.120;6.192;2022-07-09T08:10:13;3.13;;;2.85;;
18102;SDS011;9178;51.120;6.192;2022-07-09T08:12:42;2.58;;;2.38;;
18102;SDS011;9178;51.120;6.192;2022-07-09T08:15:09;2.90;;;2.60;;
18102;SDS011;9178;51.120;6.192;2022-07-09T08:17:36;4.15;;;2.75;;
18102;SDS011;9178;51.120;6.192;2022-07-09T08:20:03;4.50;;;2.25;;
18102;SDS011;9178;51.120;6.192;2022-07-09T08:22:30;3.20;;;2.50;;
18102;SDS011;9178;51.120;6.192;2022-07-09T08:24:58;4.07;;;2.30;;
18102;SDS011;9178;51.120;6.192;2022-07-09T08:27:24;3.20;;;1.92;;
18102;SDS011;9178;51.120;6.192;2022-07-09T08:29:53;2.60;;;2.40;;
18102;SDS011;9178;51.120;6.192;2022-07-09T08:32:19;5.30;;;1.80;;
18102;SDS011;9178;51.120;6.192;2022-07-09T08:34:46;3.05;;;2.25;;
18102;SDS011;9178;51.120;6.192;2022-07-09T08:37:13;5.25;;;2.25;;
18102;SDS011;9178;51.120;6.192;2022-07-09T08:39:40;5.00;;;2.70;;
18102;SDS011;9178;51.120;6.192;2022-07-09T08:42:08;4.60;;;1.77;;
18102;SDS011;9178;51.120;6.192;2022-07-09T08:44:37;3.40;;;2.90;;
18102;SDS011;9178;51.120;6.192;2022-07-09T08:47:09;3.17;;;2.20;;
18102;SDS011;9178;51.120;6.192;2022-07-09T08:49:37;4.63;;;3.03;;
18102;SDS011;9178;51.120;6.192;2022-07-09T08:52:06;3.80;;;3.00;;
18102;SDS011;9178;51.120;6.192;2022-07-09T08:54:34;7.47;;;2.70;;
18102;SDS011;9178;51.120;6.192;2022-07-09T08:57:02;5.25;;;2.28;;
18102;SDS011;9178;51.120;6.192;2022-07-09T08:59:30;3.05;;;2.67;;
18102;SDS011;9178;51.120;6.192;2022-07-09T09:01:57;2.78;;;1.85;;
18102;SDS011;9178;51.120;6.192;2022-07-09T09:04:25;3.50;;;1.95;;
18102;SDS011;9178;51.120;6.192;2022-07-09T09:06:52;3.88;;;2.20;;
18102;SDS011;9178;51.120;6.192;2022-07-09T09:09:20;3.22;;;1.98;;
18102;SDS011;9178;51.120;6.192;2022-07-09T09:11:48;3.70;;;2.38;;
18102;SDS011;9178;51.120;6.192;2022-07-09T09:14:19;2.60;;;2.40;;
18102;SDS011;9178;51.120;6.192;2022-07-09T09:16:47;2.33;;;1.95;;
18102;SDS011;9178;51.120;6.192;2022-07-09T09:19:14;3.83;;;2.20;;
18102;SDS011;9178;51.120;6.192;2022-07-09T09:21:43;3.78;;;1.60;;
18102;SDS011;9178;51.120;6.192;2022-07-09T09:24:09;3.42;;;1.83;;
18102;SDS011;9178;51.120;6.192;2022-07-09T09:26:37;4.40;;;3.00;;
18102;SDS011;9178;51.120;6.192;2022-07-09T09:29:03;23.88;;;4.10;;
18102;SDS011;9178;51.120;6.192;2022-07-09T09:31:31;4.13;;;3.63;;
18102;SDS011;9178;51.120;6.192;2022-07-09T09:34:09;3.60;;;2.70;;
18102;SDS011;9178;51.120;6.192;2022-07-09T09:36:38;4.18;;;2.20;;
18102;SDS011;9178;51.120;6.192;2022-07-09T09:39:13;2.83;;;1.83;;
18102;SDS011;9178;51.120;6.192;2022-07-09T09:41:42;1.73;;;1.40;;
18102;SDS011;9178;51.120;6.192;2022-07-09T09:44:11;2.25;;;1.30;;
18102;SDS011;9178;51.120;6.192;2022-07-09T09:46:40;2.08;;;1.75;;
18102;SDS011;9178;51.120;6.192;2022-07-09T09:49:08;3.33;;;1.75;;
18102;SDS011;9178;51.120;6.192;2022-07-09T09:51:37;4.47;;;1.65;;
18102;SDS011;9178;51.120;6.192;2022-07-09T09:54:07;2.35;;;1.77;;
18102;SDS011;9178;51.120;6.192;2022-07-09T09:56:36;3.60;;;1.98;;
18102;SDS011;9178;51.120;6.192;2022-07-09T09:59:05;4.22;;;1.30;;
18102;SDS011;9178;51.120;6.192;2022-07-09T10:01:32;2.05;;;0.90;;
18102;SDS011;9178;51.120;6.192;2022-07-09T10:03:59;1.17;;;0.50;;
18102;SDS011;9178;51.120;6.192;2022-07-09T10:06:27;1.65;;;0.70;;
18102;SDS011;9178;51.120;6.192;2022-07-09T10:08:54;1.17;;;0.70;;
18102;SDS011;9178;51.120;6.192;2022-07-09T10:11:22;1.63;;;0.95;;
18102;SDS011;9178;51.120;6.192;2022-07-09T10:13:54;1.85;;;1.10;;
18102;SDS011;9178;51.120;6.192;2022-07-09T10:16:32;2.35;;;0.80;;
18102;SDS011;9178;51.120;6.192;2022-07-09T10:19:00;2.83;;;1.05;;
18102;SDS011;9178;51.120;6.192;2022-07-09T10:21:33;2.35;;;1.20;;
18102;SDS011;9178;51.120;6.192;2022-07-09T10:24:01;1.38;;;1.20;;
18102;SDS011;9178;51.120;6.192;2022-07-09T10:26:43;2.83;;;1.60;;
18102;SDS011;9178;51.120;6.192;2022-07-09T10:29:20;2.08;;;0.70;;
18102;SDS011;9178;51.120;6.192;2022-07-09T10:31:48;4.82;;;1.27;;
18102;SDS011;9178;51.120;6.192;2022-07-09T10:34:30;2.13;;;1.20;;
18102;SDS011;9178;51.120;6.192;2022-07-09T10:37:03;1.08;;;0.88;;
18102;SDS011;9178;51.120;6.192;2022-07-09T10:39:31;1.92;;;1.70;;
18102;SDS011;9178;51.120;6.192;2022-07-09T10:41:59;2.22;;;1.60;;
18102;SDS011;9178;51.120;6.192;2022-07-09T10:44:34;2.08;;;1.50;;
18102;SDS011;9178;51.120;6.192;2022-07-09T10:47:02;2.63;;;1.30;;
18102;SDS011;9178;51.120;6.192;2022-07-09T10:49:30;4.18;;;1.85;;
18102;SDS011;9178;51.120;6.192;2022-07-09T10:51:59;2.42;;;1.40;;
18102;SDS011;9178;51.120;6.192;2022-07-09T10:54:26;1.70;;;1.52;;
18102;SDS011;9178;51.120;6.192;2022-07-09T10:56:54;2.83;;;1.40;;
18102;SDS011;9178;51.120;6.192;2022-07-09T10:59:24;4.05;;;1.60;;
18102;SDS011;9178;51.120;6.192;2022-07-09T11:01:53;2.83;;;1.50;;
18102;SDS011;9178;51.120;6.192;2022-07-09T11:04:27;1.63;;;1.52;;
18102;SDS011;9178;51.120;6.192;2022-07-09T11:06:54;2.67;;;1.50;;
18102;SDS011;9178;51.120;6.192;2022-07-09T11:09:22;2.35;;;1.60;;
18102;SDS011;9178;51.120;6.192;2022-07-09T11:11:51;3.83;;;1.70;;
18102;SDS011;9178;51.120;6.192;2022-07-09T11:14:18;2.13;;;1.10;;
18102;SDS011;9178;51.120;6.192;2022-07-09T11:16:53;3.60;;;1.45;;
18102;SDS011;9178;51.120;6.192;2022-07-09T11:19:21;2.47;;;1.60;;
18102;SDS011;9178;51.120;6.192;2022-07-09T11:21:48;1.80;;;1.05;;
18102;SDS011;9178;51.120;6.192;2022-07-09T11:24:16;2.13;;;1.40;;
18102;SDS011;9178;51.120;6.192;2022-07-09T11:26:44;2.53;;;1.27;;
18102;SDS011;9178;51.120;6.192;2022-07-09T11:29:12;1.90;;;1.63;;
18102;SDS011;9178;51.120;6.192;2022-07-09T11:31:45;2.78;;;1.50;;
18102;SDS011;9178;51.120;6.192;2022-07-09T11:34:14;4.32;;;1.60;;
18102;SDS011;9178;51.120;6.192;2022-07-09T11:36:42;2.60;;;1.60;;
18102;SDS011;9178;51.120;6.192;2022-07-09T11:39:20;2.22;;;2.00;;
18102;SDS011;9178;51.120;6.192;2022-07-09T11:41:48;2.35;;;1.70;;
18102;SDS011;9178;51.120;6.192;2022-07-09T11:44:22;2.90;;;1.60;;
18102;SDS011;9178;51.120;6.192;2022-07-09T11:46:59;2.03;;;1.27;;
18102;SDS011;9178;51.120;6.192;2022-07-09T11:49:35;2.53;;;1.92;;
18102;SDS011;9178;51.120;6.192;2022-07-09T11:52:04;2.00;;;1.80;;
18102;SDS011;9178;51.120;6.192;2022-07-09T11:54:53;5.90;;;2.00;;
18102;SDS011;9178;51.120;6.192;2022-07-09T11:57:20;2.45;;;1.98;;
18102;SDS011;9178;51.120;6.192;2022-07-09T11:59:48;4.05;;;2.28;;
18102;SDS011;9178;51.120;6.192;2022-07-09T12:02:22;3.42;;;1.52;;
18102;SDS011;9178;51.120;6.192;2022-07-09T12:04:51;1.85;;;1.60;;
18102;SDS011;9178;51.120;6.192;2022-07-09T12:07:17;2.90;;;1.80;;
18102;SDS011;9178;51.120;6.192;2022-07-09T12:09:44;2.50;;;1.70;;
18102;SDS011;9178;51.120;6.192;2022-07-09T12:12:11;2.00;;;1.90;;
18102;SDS011;9178;51.120;6.192;2022-07-09T12:14:38;4.93;;;2.10;;
18102;SDS011;9178;51.120;6.192;2022-07-09T12:17:05;2.53;;;1.90;;
18102;SDS011;9178;51.120;6.192;2022-07-09T12:19:32;3.47;;;2.00;;
18102;SDS011;9178;51.120;6.192;2022-07-09T12:22:00;4.07;;;2.70;;
18102;SDS011;9178;51.120;6.192;2022-07-09T12:24:27;3.63;;;2.55;;
18102;SDS011;9178;51.120;6.192;2022-07-09T12:26:54;4.18;;;3.88;;
18102;SDS011;9178;51.120;6.192;2022-07-09T12:29:21;7.65;;;4.90;;
18102;SDS011;9178;51.120;6.192;2022-07-09T12:31:48;7.45;;;5.70;;
18102;SDS011;9178;51.120;6.192;2022-07-09T12:34:14;6.97;;;6.30;;
18102;SDS011;9178;51.120;6.192;2022-07-09T12:36:41;8.80;;;6.25;;
18102;SDS011;9178;51.120;6.192;2022-07-09T12:39:09;6.43;;;5.57;;
18102;SDS011;9178;51.120;6.192;2022-07-09T12:41:36;7.10;;;6.40;;
18102;SDS011;9178;51.120;6.192;2022-07-09T12:44:03;9.05;;;8.18;;
18102;SDS011;9178;51.120;6.192;2022-07-09T12:46:30;9.10;;;8.23;;
18102;SDS011;9178;51.120;6.192;2022-07-09T12:48:57;9.32;;;8.30;;
18102;SDS011;9178;51.120;6.192;2022-07-09T12:51:23;9.50;;;8.13;;
18102;SDS011;9178;51.120;6.192;2022-07-09T12:53:50;9.50;;;7.63;;
18102;SDS011;9178;51.120;6.192;2022-07-09T12:56:18;10.00;;;8.95;;
18102;SDS011;9178;51.120;6.192;2022-07-09T12:58:45;15.57;;;12.25;;
18102;SDS011;9178;51.120;6.192;2022-07-09T13:01:12;11.25;;;9.98;;
18102;SDS011;9178;51.120;6.192;2022-07-09T13:03:39;13.50;;;10.18;;
18102;SDS011;9178;51.120;6.192;2022-07-09T13:06:06;12.02;;;9.55;;
18102;SDS011;9178;51.120;6.192;2022-07-09T13:08:54;12.63;;;9.63;;
18102;SDS011;9178;51.120;6.192;2022-07-09T13:11:22;8.30;;;7.40;;
18102;SDS011;9178;51.120;6.192;2022-07-09T13:13:49;6.45;;;5.80;;
18102;SDS011;9178;51.120;6.192;2022-07-09T13:16:16;5.72;;;5.13;;
18102;SDS011;9178;51.120;6.192;2022-07-09T13:18:43;4.13;;;3.45;;
18102;SDS011;9178;51.120;6.192;2022-07-09T13:21:10;2.60;;;2.40;;
18102;SDS011;9178;51.120;6.192;2022-07-09T13:23:36;3.28;;;2.50;;
18102;SDS011;9178;51.120;6.192;2022-07-09T13:26:03;2.05;;;1.83;;
18102;SDS011;9178;51.120;6.192;2022-07-09T13:28:33;4.95;;;2.13;;
18102;SDS011;9178;51.120;6.192;2022-07-09T13:31:00;4.38;;;1.88;;
18102;SDS011;9178;51.120;6.192;2022-07-09T13:33:26;3.63;;;1.50;;
18102;SDS011;9178;51.120;6.192;2022-07-09T13:35:53;1.33;;;0.82;;
18102;SDS011;9178;51.120;6.192;2022-07-09T13:38:22;1.98;;;1.40;;
18102;SDS011;9178;51.120;6.192;2022-07-09T13:40:49;2.75;;;1.60;;
18102;SDS011;9178;51.120;6.192;2022-07-09T13:43:16;1.35;;;1.20;;
18102;SDS011;9178;51.120;6.192;2022-07-09T13:45:45;4.63;;;1.45;;
18102;SDS011;9178;51.120;6.192;2022-07-09T13:48:12;2.80;;;1.10;;
18102;SDS011;9178;51.120;6.192;2022-07-09T13:50:39;1.25;;;0.90;;
18102;SDS011;9178;51.120;6.192;2022-07-09T13:53:06;1.75;;;0.90;;
18102;SDS011;9178;51.120;6.192;2022-07-09T13:55:33;2.30;;;1.15;;
18102;SDS011;9178;51.120;6.192;2022-07-09T13:58:00;4.78;;;1.10;;
18102;SDS011;9178;51.120;6.192;2022-07-09T14:00:29;0.93;;;0.80;;
18102;SDS011;9178;51.120;6.192;2022-07-09T14:02:57;1.55;;;0.82;;
18102;SDS011;9178;51.120;6.192;2022-07-09T14:05:24;2.35;;;0.90;;
18102;SDS011;9178;51.120;6.192;2022-07-09T14:07:51;0.98;;;0.70;;
18102;SDS011;9178;51.120;6.192;2022-07-09T14:10:18;2.03;;;0.60;;
18102;SDS011;9178;51.120;6.192;2022-07-09T14:12:45;2.42;;;0.68;;
18102;SDS011;9178;51.120;6.192;2022-07-09T14:15:13;1.70;;;1.08;;
18102;SDS011;9178;51.120;6.192;2022-07-09T14:17:40;1.75;;;0.90;;
18102;SDS011;9178;51.120;6.192;2022-07-09T14:20:08;1.25;;;0.80;;
18102;SDS011;9178;51.120;6.192;2022-07-09T14:22:36;2.33;;;0.80;;
18102;SDS011;9178;51.120;6.192;2022-07-09T14:25:03;0.95;;;0.88;;
18102;SDS011;9178;51.120;6.192;2022-07-09T14:27:31;2.05;;;1.02;;
18102;SDS011;9178;51.120;6.192;2022-07-09T14:29:58;18.50;;;2.00;;
18102;SDS011;9178;51.120;6.192;2022-07-09T14:32:24;1.50;;;0.80;;
18102;SDS011;9178;51.120;6.192;2022-07-09T14:34:51;3.15;;;0.90;;
18102;SDS011;9178;51.120;6.192;2022-07-09T14:37:19;3.28;;;0.82;;
18102;SDS011;9178;51.120;6.192;2022-07-09T14:39:47;0.82;;;0.77;;
18102;SDS011;9178;51.120;6.192;2022-07-09T14:42:13;1.67;;;0.63;;
18102;SDS011;9178;51.120;6.192;2022-07-09T14:44:40;2.58;;;0.88;;
18102;SDS011;9178;51.120;6.192;2022-07-09T14:47:07;1.67;;;0.63;;
18102;SDS011;9178;51.120;6.192;2022-07-09T14:49:34;0.95;;;0.50;;
18102;SDS011;9178;51.120;6.192;2022-07-09T14:52:00;3.00;;;0.70;;
18102;SDS011;9178;51.120;6.192;2022-07-09T14:54:29;0.85;;;0.80;;
18102;SDS011;9178;51.120;6.192;2022-07-09T14:56:56;0.50;;;0.50;;
18102;SDS011;9178;51.120;6.192;2022-07-09T14:59:23;1.13;;;0.80;;
18102;SDS011;9178;51.120;6.192;2022-07-09T15:01:50;2.13;;;0.60;;